createdAt,value
2022-10-17T00:00:35.561Z,14.40
2022-10-17T00:03:58.373Z,15.00
2022-10-17T00:07:01.202Z,15.40
2022-10-17T00:10:05.824Z,15.50
2022-10-17T00:13:09.656Z,15.80
2022-10-17T00:16:12.506Z,14.50
2022-10-17T00:19:15.321Z,16.40
2022-10-17T00:22:18.205Z,14.20
2022-10-17T00:25:21.038Z,14.00
2022-10-17T00:28:23.888Z,13.50
2022-10-17T00:31:26.852Z,14.20
2022-10-17T00:34:31.191Z,15.10
2022-10-17T00:37:34.591Z,15.00
2022-10-17T00:40:37.491Z,15.30
2022-10-17T00:44:02.141Z,15.40
2022-10-17T00:47:08.511Z,15.30
2022-10-17T00:50:13.058Z,14.90
2022-10-17T00:53:16.849Z,14.80
2022-10-17T00:56:21.256Z,14.80
2022-10-17T00:59:25.032Z,15.10
2022-10-17T01:02:28.127Z,15.20
2022-10-17T01:05:31.251Z,14.90
2022-10-17T01:08:34.544Z,14.00
2022-10-17T01:11:56.973Z,15.20
2022-10-17T01:18:43.200Z,13.50
2022-10-17T01:22:10.158Z,13.90
2022-10-17T01:25:42.689Z,13.20
2022-10-17T01:29:13.255Z,12.70
2022-10-17T01:32:28.130Z,13.70
2022-10-17T01:35:48.568Z,13.00
2022-10-17T01:39:06.134Z,13.80
2022-10-17T01:42:27.408Z,14.00
2022-10-17T01:45:41.228Z,14.10
2022-10-17T01:48:46.250Z,14.70
2022-10-17T01:51:55.726Z,14.10
2022-10-17T01:55:06.975Z,12.90
2022-10-17T01:58:30.089Z,13.50
2022-10-17T02:01:37.506Z,13.10
2022-10-17T02:04:41.397Z,12.60
2022-10-17T02:07:44.302Z,12.50
2022-10-17T02:10:59.223Z,12.10
2022-10-17T02:14:25.104Z,12.70
2022-10-17T02:17:36.362Z,12.40
2022-10-17T02:20:49.642Z,12.10
2022-10-17T02:24:20.409Z,12.10
2022-10-17T02:27:35.358Z,12.30
2022-10-17T02:30:58.406Z,12.70
2022-10-17T02:34:05.074Z,11.90
2022-10-17T02:37:11.502Z,12.00
2022-10-17T02:40:17.587Z,12.10
2022-10-17T02:43:21.980Z,12.50
2022-10-17T02:46:28.014Z,12.50
2022-10-17T02:49:39.210Z,12.80
2022-10-17T02:52:58.120Z,12.10
2022-10-17T02:56:14.327Z,12.10
2022-10-17T02:59:20.771Z,11.90
2022-10-17T03:02:23.685Z,12.70
2022-10-17T03:05:29.144Z,11.60
2022-10-17T03:08:32.098Z,12.80
2022-10-17T03:11:36.308Z,12.40
2022-10-17T03:14:39.317Z,12.80
2022-10-17T03:17:42.932Z,12.20
2022-10-17T03:20:46.137Z,12.90
2022-10-17T03:23:49.131Z,12.00
2022-10-17T03:26:52.459Z,12.70
2022-10-17T03:29:55.694Z,12.80
2022-10-17T03:32:59.514Z,13.70
2022-10-17T03:36:11.643Z,14.00
2022-10-17T03:39:14.723Z,14.20
2022-10-17T03:42:17.714Z,14.40
2022-10-17T03:45:20.850Z,13.70
2022-10-17T03:48:41.433Z,13.60
2022-10-17T03:51:44.549Z,14.30
2022-10-17T03:54:51.014Z,13.70
2022-10-17T03:57:54.196Z,14.30
2022-10-17T04:00:57.238Z,14.30
2022-10-17T04:04:00.234Z,13.80
2022-10-17T04:07:06.058Z,13.50
2022-10-17T04:10:10.993Z,13.70
2022-10-17T04:13:14.227Z,13.10
2022-10-17T04:16:17.362Z,13.40
2022-10-17T04:19:34.238Z,14.20
2022-10-17T04:22:37.484Z,14.20
2022-10-17T04:25:40.603Z,14.00
2022-10-17T04:28:43.533Z,14.90
2022-10-17T04:31:46.642Z,15.90
2022-10-17T04:34:59.602Z,14.80
2022-10-17T04:38:03.602Z,15.60
2022-10-17T04:41:10.277Z,14.10
2022-10-17T04:44:13.217Z,14.60
2022-10-17T04:47:19.074Z,15.30
2022-10-17T04:50:22.255Z,15.10
2022-10-17T04:53:42.587Z,15.00
2022-10-17T04:56:47.206Z,14.10
2022-10-17T04:59:50.133Z,13.80
2022-10-17T05:03:19.048Z,14.90
2022-10-17T05:06:25.070Z,14.90
2022-10-17T05:09:43.101Z,14.10
2022-10-17T05:12:48.157Z,14.30
2022-10-17T05:15:51.957Z,14.70
2022-10-17T05:18:56.783Z,13.90
2022-10-17T05:22:02.925Z,14.40
2022-10-17T05:25:06.473Z,14.50
2022-10-17T05:28:09.777Z,14.00
2022-10-17T05:31:14.134Z,14.00
2022-10-17T05:34:18.018Z,16.10
2022-10-17T05:37:20.970Z,16.10
2022-10-17T05:40:26.276Z,17.60
2022-10-17T05:43:30.127Z,17.60
2022-10-17T05:46:33.023Z,18.70
2022-10-17T05:49:52.438Z,19.00
2022-10-17T05:53:03.439Z,20.10
2022-10-17T05:56:08.994Z,19.60
2022-10-17T05:59:12.833Z,19.70
2022-10-17T06:02:24.863Z,20.00
2022-10-17T06:05:27.873Z,20.60
2022-10-17T06:08:32.324Z,20.70
2022-10-17T06:11:36.368Z,20.60
2022-10-17T06:14:39.253Z,18.20
2022-10-17T06:17:42.734Z,18.30
2022-10-17T06:20:46.219Z,18.40
2022-10-17T06:23:51.559Z,18.50
2022-10-17T06:27:11.008Z,18.40
2022-10-17T06:30:15.345Z,18.80
2022-10-17T06:33:18.313Z,19.10
2022-10-17T06:36:21.384Z,19.40
2022-10-17T06:39:26.941Z,17.70
2022-10-17T06:42:56.411Z,17.40
2022-10-17T06:46:01.783Z,17.00
2022-10-17T06:49:13.029Z,16.10
2022-10-17T06:52:34.887Z,16.40
2022-10-17T06:56:01.611Z,15.10
2022-10-17T06:59:33.471Z,14.70
2022-10-17T07:02:46.337Z,13.90
2022-10-17T07:05:53.495Z,12.90
2022-10-17T07:08:56.385Z,13.60
2022-10-17T07:12:00.636Z,14.40
2022-10-17T07:15:04.987Z,13.10
2022-10-17T07:18:08.282Z,13.30
2022-10-17T07:21:11.327Z,11.50
2022-10-17T07:24:16.072Z,11.50
2022-10-17T07:27:23.326Z,11.10
2022-10-17T07:30:27.263Z,10.70
2022-10-17T07:33:38.613Z,10.20
2022-10-17T07:36:41.709Z,10.40
2022-10-17T07:39:44.976Z,9.30
2022-10-17T07:42:48.327Z,10.20
2022-10-17T07:45:52.600Z,9.80
2022-10-17T07:48:55.415Z,10.00
2022-10-17T07:51:58.491Z,9.60
2022-10-17T07:55:01.548Z,8.90
2022-10-17T07:58:04.429Z,9.20
2022-10-17T08:01:14.751Z,9.00
2022-10-17T08:04:18.553Z,9.60
2022-10-17T08:07:25.312Z,9.30
2022-10-17T08:10:31.339Z,8.90
2022-10-17T08:13:34.579Z,8.70
2022-10-17T08:16:37.506Z,8.60
2022-10-17T08:19:40.812Z,8.60
2022-10-17T08:22:43.785Z,8.30
2022-10-17T08:25:47.047Z,8.30
2022-10-17T08:28:49.906Z,8.00
2022-10-17T08:31:56.289Z,8.50
2022-10-17T08:35:04.460Z,8.80
2022-10-17T08:38:09.950Z,8.40
2022-10-17T08:41:36.568Z,9.00
2022-10-17T08:44:57.425Z,9.40
2022-10-17T08:48:02.613Z,8.90
2022-10-17T08:59:59.696Z,9.10
2022-10-17T09:03:16.742Z,8.40
2022-10-17T09:06:29.978Z,8.30
2022-10-17T09:09:50.144Z,8.80
2022-10-17T09:13:10.540Z,9.20
2022-10-17T09:16:36.882Z,9.00
2022-10-17T09:19:43.575Z,9.10
2022-10-17T09:23:06.015Z,10.40
2022-10-17T09:26:11.152Z,8.30
2022-10-17T09:29:21.384Z,8.60
2022-10-17T09:32:24.657Z,8.90
2022-10-17T09:35:29.616Z,9.10
2022-10-17T09:38:39.766Z,9.30
2022-10-17T09:41:51.437Z,8.80
2022-10-17T09:45:16.099Z,8.50
2022-10-17T09:48:34.476Z,9.40
2022-10-17T09:51:38.090Z,8.80
2022-10-17T09:54:52.661Z,8.50
2022-10-17T09:58:10.111Z,9.00
2022-10-17T10:01:23.996Z,8.20
2022-10-17T10:04:30.244Z,8.70
2022-10-17T10:07:51.605Z,9.70
2022-10-17T10:11:00.095Z,8.00
2022-10-17T10:14:34.035Z,7.80
2022-10-17T10:18:26.178Z,7.90
2022-10-17T10:21:28.183Z,9.30
2022-10-17T10:25:17.087Z,8.20
2022-10-17T10:28:25.678Z,9.90
2022-10-17T10:31:39.197Z,9.10
2022-10-17T10:35:18.636Z,8.10
2022-10-17T10:38:22.452Z,7.60
2022-10-17T10:41:48.167Z,7.70
2022-10-17T10:44:56.036Z,7.10
2022-10-17T10:48:19.168Z,8.70
2022-10-17T10:51:27.089Z,8.60
2022-10-17T10:54:36.049Z,8.70
2022-10-17T10:57:44.348Z,8.30
2022-10-17T11:00:47.291Z,8.40
2022-10-17T11:04:23.043Z,9.50
2022-10-17T11:07:46.408Z,7.70
2022-10-17T11:11:13.171Z,7.70
2022-10-17T11:14:31.266Z,8.10
2022-10-17T11:17:56.325Z,9.80
2022-10-17T11:21:16.119Z,6.70
2022-10-17T11:24:29.341Z,9.60
2022-10-17T11:27:33.375Z,9.20
2022-10-17T11:30:45.999Z,8.10
2022-10-17T11:33:53.487Z,7.10
2022-10-17T11:37:09.097Z,7.80
2022-10-17T11:40:44.517Z,6.60
2022-10-17T11:44:02.747Z,11.50
2022-10-17T11:47:25.659Z,7.80
2022-10-17T11:54:22.733Z,6.80
2022-10-17T11:57:44.794Z,6.90
2022-10-17T12:00:56.122Z,7.20
2022-10-17T12:04:06.786Z,8.40
2022-10-17T12:07:21.694Z,6.70
2022-10-17T12:10:47.928Z,6.80
2022-10-17T12:13:53.885Z,6.50
2022-10-17T12:16:55.476Z,6.10
2022-10-17T12:20:25.024Z,6.60
2022-10-17T12:23:28.361Z,6.30
2022-10-17T12:26:30.259Z,7.00
2022-10-17T12:29:32.038Z,7.70
2022-10-17T12:32:46.848Z,8.30
2022-10-17T12:36:28.082Z,8.30
2022-10-17T12:39:29.549Z,6.80
2022-10-17T12:42:32.557Z,6.70
2022-10-17T12:46:02.911Z,6.20
2022-10-17T12:49:20.343Z,6.00
2022-10-17T12:52:34.812Z,6.70
2022-10-17T12:55:36.710Z,30.00
2022-10-17T12:58:48.828Z,8.10
2022-10-17T13:02:01.179Z,6.30
2022-10-17T13:05:18.797Z,6.30
2022-10-17T13:08:34.041Z,6.70
2022-10-17T13:12:21.327Z,6.70
2022-10-17T13:15:23.305Z,6.60
2022-10-17T13:26:45.495Z,5.60
2022-10-17T13:29:48.008Z,5.90
2022-10-17T13:32:49.829Z,6.10
2022-10-17T13:36:06.939Z,6.40
2022-10-17T13:39:14.993Z,6.00
2022-10-17T13:42:30.548Z,5.80
2022-10-17T13:45:37.674Z,5.80
2022-10-17T13:54:55.396Z,5.80
2022-10-17T14:04:19.472Z,5.50
2022-10-17T14:18:20.235Z,6.30
2022-10-17T14:21:40.900Z,6.20
2022-10-17T14:24:47.070Z,6.10
2022-10-17T14:28:02.293Z,6.10
2022-10-17T14:31:20.274Z,15.00
2022-10-17T14:34:29.923Z,6.80
2022-10-17T14:37:46.421Z,6.30
2022-10-17T14:40:51.750Z,8.20
2022-10-17T14:44:00.926Z,7.70
2022-10-17T14:47:30.906Z,6.30
2022-10-17T14:50:31.976Z,6.10
2022-10-17T14:53:34.965Z,6.70
2022-10-17T14:56:41.801Z,7.50
2022-10-17T15:00:00.167Z,8.90
2022-10-17T15:03:03.068Z,9.60
2022-10-17T15:06:24.636Z,26.90
2022-10-17T15:09:29.013Z,10.40
2022-10-17T15:12:32.883Z,8.20
2022-10-17T15:15:37.390Z,6.90
2022-10-17T15:18:40.234Z,6.60
2022-10-17T15:21:46.949Z,7.50
2022-10-17T15:24:50.516Z,7.90
2022-10-17T15:27:54.387Z,8.70
2022-10-17T15:30:57.249Z,9.80
2022-10-17T15:34:00.146Z,11.40
2022-10-17T15:37:04.799Z,21.50
2022-10-17T15:40:14.686Z,50.40
2022-10-17T15:43:19.911Z,73.50
2022-10-17T15:46:28.778Z,65.40
2022-10-17T15:49:31.606Z,39.80
2022-10-17T15:52:35.409Z,33.70
2022-10-17T15:55:38.299Z,35.80
2022-10-17T15:58:41.141Z,32.50
2022-10-17T16:01:44.660Z,26.70
2022-10-17T16:04:49.389Z,21.20
2022-10-17T16:07:53.692Z,18.80
2022-10-17T16:10:56.649Z,19.60
2022-10-17T16:14:02.385Z,21.00
2022-10-17T16:17:05.241Z,21.00
2022-10-17T16:20:08.405Z,19.30
2022-10-17T16:23:13.408Z,19.80
2022-10-17T16:26:16.370Z,29.70
2022-10-17T16:29:19.162Z,39.40
2022-10-17T16:32:22.044Z,38.60
2022-10-17T16:35:31.867Z,40.40
2022-10-17T16:38:38.053Z,44.20
2022-10-17T16:41:41.292Z,47.70
2022-10-17T16:44:44.638Z,42.00
2022-10-17T16:47:50.776Z,33.00
2022-10-17T16:50:54.082Z,34.00
2022-10-17T16:54:00.223Z,49.00
2022-10-17T16:57:05.814Z,42.90
2022-10-17T17:00:12.159Z,30.50
2022-10-17T17:03:15.908Z,25.70
2022-10-17T17:06:29.497Z,31.30
2022-10-17T17:09:32.666Z,30.20
2022-10-17T17:12:40.203Z,27.00
2022-10-17T17:18:51.472Z,27.80
2022-10-17T17:21:54.488Z,28.80
2022-10-17T17:24:57.478Z,30.20
2022-10-17T17:28:03.454Z,26.00
2022-10-17T17:31:09.191Z,23.20
2022-10-17T17:34:14.345Z,19.60
2022-10-17T17:37:20.211Z,20.20
2022-10-17T17:40:23.318Z,21.40
2022-10-17T17:43:26.283Z,20.70
2022-10-17T17:46:29.255Z,20.30
2022-10-17T17:49:32.400Z,20.80
2022-10-17T17:52:35.581Z,22.30
2022-10-17T17:55:41.010Z,20.40
2022-10-17T17:59:01.559Z,19.60
2022-10-17T18:02:07.050Z,42.60
2022-10-17T18:05:10.308Z,64.00
2022-10-17T18:08:13.271Z,51.30
2022-10-17T18:11:18.408Z,39.10
2022-10-17T18:14:24.261Z,32.00
2022-10-17T18:17:27.738Z,26.40
2022-10-17T18:20:30.515Z,21.30
2022-10-17T18:23:37.584Z,18.60
2022-10-17T18:26:40.405Z,16.30
2022-10-17T18:29:46.243Z,16.00
2022-10-17T18:32:49.095Z,16.70
2022-10-17T18:35:51.915Z,17.70
2022-10-17T18:38:55.567Z,17.50
2022-10-17T18:41:58.456Z,18.80
2022-10-17T18:45:05.914Z,19.80
2022-10-17T18:48:10.327Z,19.00
2022-10-17T18:51:15.433Z,18.10
2022-10-17T18:54:21.445Z,18.70
2022-10-17T18:57:26.173Z,17.70
2022-10-17T19:00:31.838Z,17.10
2022-10-17T19:03:34.903Z,18.40
2022-10-17T19:06:38.897Z,19.80
2022-10-17T19:09:43.601Z,20.10
2022-10-17T19:12:47.561Z,21.10
2022-10-17T19:15:53.753Z,19.90
2022-10-17T19:18:59.219Z,17.90
2022-10-17T19:22:03.574Z,16.60
2022-10-17T19:25:07.498Z,15.10
2022-10-17T19:28:10.553Z,13.30
2022-10-17T19:31:16.977Z,14.10
2022-10-17T19:34:20.881Z,13.20
2022-10-17T19:37:24.036Z,12.40
2022-10-17T19:40:27.594Z,12.70
2022-10-17T19:43:30.991Z,12.70
2022-10-17T19:46:37.784Z,12.20
2022-10-17T19:49:47.692Z,12.10
2022-10-17T19:52:54.686Z,11.30
2022-10-17T19:55:58.374Z,12.60
2022-10-17T19:59:02.464Z,12.40
2022-10-17T20:02:06.198Z,11.70
2022-10-17T20:05:18.389Z,12.40
2022-10-17T20:08:21.954Z,12.30
2022-10-17T20:11:27.320Z,12.00
2022-10-17T20:14:35.226Z,12.00
2022-10-17T20:17:42.659Z,11.90
2022-10-17T20:20:48.053Z,11.70
2022-10-17T20:23:51.877Z,12.10
2022-10-17T20:26:54.928Z,11.20
2022-10-17T20:30:01.788Z,11.60
2022-10-17T20:33:07.923Z,10.50
2022-10-17T20:36:13.165Z,9.90
2022-10-17T20:39:19.965Z,10.20
2022-10-17T20:42:22.829Z,10.30
2022-10-17T20:45:37.703Z,9.90
2022-10-17T20:48:55.306Z,9.70
2022-10-17T20:52:01.540Z,9.50
2022-10-17T20:55:05.018Z,10.60
2022-10-17T20:58:14.501Z,10.10
2022-10-17T21:01:18.129Z,9.80
2022-10-17T21:04:44.610Z,10.60
2022-10-17T21:07:49.859Z,10.20
2022-10-17T21:11:10.200Z,10.00
2022-10-17T21:14:16.842Z,9.10
2022-10-17T21:17:21.851Z,8.90
2022-10-17T21:20:27.219Z,9.00
2022-10-17T21:23:30.426Z,8.10
2022-10-17T21:26:37.310Z,9.00
2022-10-17T21:29:41.728Z,9.00
2022-10-17T21:32:51.608Z,8.90
2022-10-17T21:35:55.341Z,8.00
2022-10-17T21:39:00.188Z,9.10
2022-10-17T21:42:06.122Z,8.20
2022-10-17T21:45:15.369Z,8.20
2022-10-17T21:48:23.040Z,7.80
2022-10-17T21:51:26.948Z,8.00
2022-10-17T21:54:29.849Z,7.70
2022-10-17T21:57:32.759Z,8.00
2022-10-17T22:00:35.539Z,8.70
2022-10-17T22:03:44.088Z,8.40
2022-10-17T22:06:51.363Z,8.30
2022-10-17T22:09:54.286Z,8.90
2022-10-17T22:12:57.391Z,8.80
2022-10-17T22:16:01.736Z,8.70
2022-10-17T22:19:06.772Z,9.00
2022-10-17T22:22:09.839Z,9.30
2022-10-17T22:25:12.754Z,9.60
2022-10-17T22:28:15.755Z,10.00
2022-10-17T22:31:19.509Z,9.60
2022-10-17T22:34:22.388Z,9.10
2022-10-17T22:37:25.268Z,9.50
2022-10-17T22:40:28.165Z,8.90
2022-10-17T22:43:31.532Z,9.30
2022-10-17T22:46:37.051Z,9.60
2022-10-17T22:49:39.948Z,8.50
2022-10-17T22:52:42.871Z,8.30
2022-10-17T22:55:56.254Z,7.60
2022-10-17T22:58:59.192Z,6.60
2022-10-17T23:02:02.250Z,6.70
2022-10-17T23:05:07.455Z,7.30
2022-10-17T23:08:11.413Z,7.20
2022-10-17T23:11:14.360Z,7.00
2022-10-17T23:14:17.361Z,7.20
2022-10-17T23:17:20.255Z,7.40
2022-10-17T23:20:23.166Z,7.10
2022-10-17T23:23:26.249Z,7.00
2022-10-17T23:26:29.124Z,7.80
2022-10-17T23:29:33.376Z,7.70
2022-10-17T23:32:36.244Z,7.70
2022-10-17T23:35:39.166Z,7.90
2022-10-17T23:38:43.442Z,7.70
2022-10-17T23:41:46.521Z,7.10
2022-10-17T23:44:49.477Z,7.60
2022-10-17T23:47:52.341Z,8.00
2022-10-17T23:50:56.105Z,7.70
2022-10-17T23:53:59.260Z,8.80
2022-10-17T23:57:02.211Z,8.60
